createdAt,value
2019-01-15T00:00:37.872Z,17.86
2019-01-15T00:01:37.903Z,17.86
2019-01-15T00:02:37.741Z,17.86
2019-01-15T00:03:38.099Z,17.85
2019-01-15T00:04:38.476Z,17.85
2019-01-15T00:05:37.746Z,17.85
2019-01-15T00:06:37.530Z,17.85
2019-01-15T00:07:38.137Z,17.83
2019-01-15T00:08:38.405Z,17.82
2019-01-15T00:09:37.973Z,17.82
2019-01-15T00:10:37.849Z,17.82
2019-01-15T00:11:37.784Z,17.82
2019-01-15T00:12:38.621Z,17.81
2019-01-15T00:13:37.583Z,17.81
2019-01-15T00:14:37.751Z,17.81
2019-01-15T00:15:37.630Z,17.8
2019-01-15T00:16:38.124Z,17.79
2019-01-15T00:17:37.935Z,17.79
2019-01-15T00:18:39.537Z,17.79
2019-01-15T00:19:38.036Z,17.79
2019-01-15T00:20:37.499Z,17.79
2019-01-15T00:21:37.656Z,17.78
2019-01-15T00:22:37.888Z,17.77
2019-01-15T00:23:37.847Z,17.77
2019-01-15T00:24:37.641Z,17.76
2019-01-15T00:25:37.648Z,17.76
2019-01-15T00:26:38.330Z,17.74
2019-01-15T00:27:37.803Z,17.74
2019-01-15T00:28:37.657Z,17.74
2019-01-15T00:29:37.762Z,17.73
2019-01-15T00:30:38.026Z,17.73
2019-01-15T00:31:38.071Z,17.73
2019-01-15T00:32:37.598Z,17.73
2019-01-15T00:33:37.633Z,17.73
2019-01-15T00:34:37.935Z,17.71
2019-01-15T00:35:37.892Z,17.72
2019-01-15T00:36:37.930Z,17.71
2019-01-15T00:37:37.921Z,17.71
2019-01-15T00:38:37.898Z,17.7
2019-01-15T00:39:37.630Z,17.69
2019-01-15T00:40:38.092Z,17.69
2019-01-15T00:41:37.865Z,17.69
2019-01-15T00:42:38.632Z,17.67
2019-01-15T00:43:38.543Z,17.67
2019-01-15T00:44:38.036Z,17.67
2019-01-15T00:45:38.139Z,17.67
2019-01-15T00:46:37.563Z,17.67
2019-01-15T00:47:37.577Z,17.66
2019-01-15T00:48:37.695Z,17.66
2019-01-15T00:49:37.842Z,17.65
2019-01-15T00:50:38.122Z,17.65
2019-01-15T00:51:37.665Z,17.65
2019-01-15T00:52:37.765Z,17.64
2019-01-15T00:53:37.716Z,17.64
2019-01-15T00:54:37.698Z,17.63
2019-01-15T00:55:37.666Z,17.63
2019-01-15T00:56:37.746Z,17.62
2019-01-15T00:57:37.852Z,17.63
2019-01-15T00:58:37.701Z,17.61
2019-01-15T00:59:37.683Z,17.61
2019-01-15T01:00:37.777Z,17.6
2019-01-15T01:01:37.672Z,17.61
2019-01-15T01:02:37.766Z,17.6
2019-01-15T01:03:37.767Z,17.6
2019-01-15T01:04:38.142Z,17.6
2019-01-15T01:05:38.001Z,17.59
2019-01-15T01:06:38.017Z,17.59
2019-01-15T01:07:37.962Z,17.58
2019-01-15T01:08:38.087Z,17.59
2019-01-15T01:09:37.632Z,17.59
2019-01-15T01:10:37.584Z,17.58
2019-01-15T01:11:37.633Z,17.57
2019-01-15T01:12:37.626Z,17.56
2019-01-15T01:13:37.780Z,17.57
2019-01-15T01:14:37.937Z,17.56
2019-01-15T01:15:38.340Z,17.57
2019-01-15T01:16:37.976Z,17.55
2019-01-15T01:17:37.720Z,17.55
2019-01-15T01:18:37.859Z,17.54
2019-01-15T01:19:38.249Z,17.54
2019-01-15T01:20:37.709Z,17.54
2019-01-15T01:21:37.912Z,17.54
2019-01-15T01:22:37.836Z,17.54
2019-01-15T01:23:37.633Z,17.53
2019-01-15T01:24:38.196Z,17.54
2019-01-15T01:25:38.014Z,17.54
2019-01-15T01:26:38.043Z,17.54
2019-01-15T01:27:38.002Z,17.53
2019-01-15T01:28:37.746Z,17.52
2019-01-15T01:29:37.949Z,17.52
2019-01-15T01:30:37.581Z,17.51
2019-01-15T01:31:38.156Z,17.52
2019-01-15T01:32:38.254Z,17.5
2019-01-15T01:33:37.936Z,17.5
2019-01-15T01:34:37.978Z,17.49
2019-01-15T01:35:37.952Z,17.49
2019-01-15T01:36:38.091Z,17.49
2019-01-15T01:37:39.391Z,17.48
2019-01-15T01:38:37.812Z,17.49
2019-01-15T01:39:37.782Z,17.48
2019-01-15T01:40:37.793Z,17.48
2019-01-15T01:41:37.919Z,17.48
2019-01-15T01:42:37.765Z,17.48
2019-01-15T01:43:38.108Z,17.48
2019-01-15T01:44:37.715Z,17.48
2019-01-15T01:45:38.091Z,17.47
2019-01-15T01:46:37.968Z,17.47
2019-01-15T01:47:38.035Z,17.46
2019-01-15T01:48:38.154Z,17.46
2019-01-15T01:49:37.927Z,17.46
2019-01-15T01:50:37.785Z,17.44
2019-01-15T01:51:37.954Z,17.44
2019-01-15T01:52:38.332Z,17.43
2019-01-15T01:53:37.898Z,17.43
2019-01-15T01:54:37.899Z,17.42
2019-01-15T01:55:39.458Z,17.43
2019-01-15T01:56:38.408Z,17.42
2019-01-15T01:57:37.780Z,17.41
2019-01-15T01:58:37.961Z,17.42
2019-01-15T01:59:37.880Z,17.42
2019-01-15T02:00:37.911Z,17.42
2019-01-15T02:01:38.209Z,17.42
2019-01-15T02:02:37.486Z,17.4
2019-01-15T02:03:38.276Z,17.41
2019-01-15T02:04:37.654Z,17.4
2019-01-15T02:05:37.547Z,17.39
2019-01-15T02:06:37.900Z,17.39
2019-01-15T02:07:37.627Z,17.38
2019-01-15T02:08:37.987Z,17.38
2019-01-15T02:09:38.037Z,17.37
2019-01-15T02:10:37.908Z,17.37
2019-01-15T02:11:37.635Z,17.37
2019-01-15T02:12:38.076Z,17.37
2019-01-15T02:13:37.641Z,17.37
2019-01-15T02:14:37.824Z,17.36
2019-01-15T02:15:38.113Z,17.36
2019-01-15T02:16:37.624Z,17.36
2019-01-15T02:17:37.972Z,17.36
2019-01-15T02:18:38.052Z,17.35
2019-01-15T02:19:37.518Z,17.35
2019-01-15T02:20:37.605Z,17.34
2019-01-15T02:21:37.781Z,17.34
2019-01-15T02:22:37.623Z,17.33
2019-01-15T02:23:37.705Z,17.32
2019-01-15T02:24:37.760Z,17.32
2019-01-15T02:25:37.914Z,17.33
2019-01-15T02:26:38.248Z,17.31
2019-01-15T02:27:37.525Z,17.31
2019-01-15T02:28:37.943Z,17.32
2019-01-15T02:29:37.753Z,17.32
2019-01-15T02:30:37.611Z,17.32
2019-01-15T02:31:37.912Z,17.32
2019-01-15T02:32:37.979Z,17.32
2019-01-15T02:33:37.674Z,17.3
2019-01-15T02:34:38.003Z,17.31
2019-01-15T02:35:37.766Z,17.3
2019-01-15T02:36:38.013Z,17.3
2019-01-15T02:37:38.427Z,17.29
2019-01-15T02:38:37.668Z,17.29
2019-01-15T02:39:37.791Z,17.28
2019-01-15T02:40:37.858Z,17.27
2019-01-15T02:41:37.774Z,17.28
2019-01-15T02:42:47.529Z,17.29
2019-01-15T02:43:37.661Z,17.27
2019-01-15T02:44:37.674Z,17.27
2019-01-15T02:45:37.900Z,17.27
2019-01-15T02:46:37.691Z,17.27
2019-01-15T02:47:37.765Z,17.27
2019-01-15T02:48:37.998Z,17.27
2019-01-15T02:49:37.631Z,17.26
2019-01-15T02:50:37.814Z,17.26
2019-01-15T02:51:37.776Z,17.25
2019-01-15T02:52:37.717Z,17.25
2019-01-15T02:53:37.864Z,17.23
2019-01-15T02:54:37.825Z,17.23
2019-01-15T02:55:37.718Z,17.23
2019-01-15T02:56:37.748Z,17.23
2019-01-15T02:57:38.160Z,17.24
2019-01-15T02:58:38.517Z,17.23
2019-01-15T02:59:37.551Z,17.23
2019-01-15T03:00:37.969Z,17.22
2019-01-15T03:01:38.686Z,17.22
2019-01-15T03:02:37.588Z,17.23
2019-01-15T03:03:37.653Z,17.22
2019-01-15T03:04:37.801Z,17.23
2019-01-15T03:05:37.793Z,17.21
2019-01-15T03:06:37.665Z,17.21
2019-01-15T03:07:37.801Z,17.2
2019-01-15T03:08:38.409Z,17.19
2019-01-15T03:09:37.859Z,17.19
2019-01-15T03:10:37.444Z,17.18
2019-01-15T03:11:38.085Z,17.19
2019-01-15T03:12:38.141Z,17.18
2019-01-15T03:13:37.423Z,17.18
2019-01-15T03:14:37.825Z,17.18
2019-01-15T03:15:37.663Z,17.17
2019-01-15T03:16:37.877Z,17.18
2019-01-15T03:17:37.649Z,17.17
2019-01-15T03:18:37.645Z,17.17
2019-01-15T03:19:37.927Z,17.17
2019-01-15T03:20:39.573Z,17.17
2019-01-15T03:21:37.981Z,17.17
2019-01-15T03:22:37.704Z,17.15
2019-01-15T03:23:37.722Z,17.15
2019-01-15T03:24:37.802Z,17.15
2019-01-15T03:25:37.652Z,17.16
2019-01-15T03:26:37.831Z,17.14
2019-01-15T03:27:37.777Z,17.13
2019-01-15T03:28:37.621Z,17.14
2019-01-15T03:29:37.892Z,17.15
2019-01-15T03:30:38.210Z,17.14
2019-01-15T03:31:38.133Z,17.12
2019-01-15T03:32:37.905Z,17.13
2019-01-15T03:33:38.110Z,17.13
2019-01-15T03:34:37.780Z,17.13
2019-01-15T03:35:37.637Z,17.13
2019-01-15T03:36:38.048Z,17.11
2019-01-15T03:37:39.060Z,17.12
2019-01-15T03:38:39.590Z,17.1
2019-01-15T03:39:37.900Z,17.1
2019-01-15T03:40:37.815Z,17.12
2019-01-15T03:41:37.764Z,17.1
2019-01-15T03:42:37.996Z,17.1
2019-01-15T03:43:38.293Z,17.1
2019-01-15T03:44:37.459Z,17.1
2019-01-15T03:45:37.956Z,17.1
2019-01-15T03:46:38.343Z,17.09
2019-01-15T03:47:37.869Z,17.08
2019-01-15T03:48:37.688Z,17.09
2019-01-15T03:49:37.910Z,17.08
2019-01-15T03:50:37.842Z,17.1
2019-01-15T03:51:37.966Z,17.1
2019-01-15T03:52:37.687Z,17.09
2019-01-15T03:53:37.775Z,17.08
2019-01-15T03:54:37.707Z,17.08
2019-01-15T03:55:38.627Z,17.06
2019-01-15T03:56:37.778Z,17.08
2019-01-15T03:57:37.607Z,17.07
2019-01-15T03:58:38.007Z,17.06
2019-01-15T03:59:37.741Z,17.06
2019-01-15T04:00:37.664Z,17.05
2019-01-15T04:01:37.817Z,17.05
2019-01-15T04:02:37.604Z,17.06
2019-01-15T04:03:37.723Z,17.04
2019-01-15T04:04:37.469Z,17.05
2019-01-15T04:05:37.766Z,17.05
2019-01-15T04:06:38.145Z,17.04
2019-01-15T04:07:37.477Z,17.05
2019-01-15T04:08:37.865Z,17.04
2019-01-15T04:09:37.684Z,17.04
2019-01-15T04:10:37.492Z,17.03
2019-01-15T04:11:38.022Z,17.04
2019-01-15T04:12:38.016Z,17.04
2019-01-15T04:13:37.449Z,17.01
2019-01-15T04:14:37.887Z,17.02
2019-01-15T04:15:37.847Z,17.03
2019-01-15T04:16:37.690Z,17.02
2019-01-15T04:17:37.701Z,17.01
2019-01-15T04:18:37.577Z,17.01
2019-01-15T04:19:37.718Z,17.02
2019-01-15T04:20:37.917Z,17.02
2019-01-15T04:21:37.717Z,17.01
2019-01-15T04:22:37.698Z,17
2019-01-15T04:23:37.770Z,16.99
2019-01-15T04:24:37.445Z,16.99
2019-01-15T04:25:37.737Z,16.99
2019-01-15T04:26:37.896Z,16.99
2019-01-15T04:27:37.889Z,17
2019-01-15T04:28:38.480Z,17
2019-01-15T04:29:37.961Z,17
2019-01-15T04:30:37.898Z,16.98
2019-01-15T04:31:38.036Z,16.98
2019-01-15T04:32:37.752Z,16.98
2019-01-15T04:33:37.795Z,16.98
2019-01-15T04:34:37.963Z,16.99
2019-01-15T04:35:37.727Z,16.98
2019-01-15T04:36:37.694Z,16.99
2019-01-15T04:37:38.404Z,16.98
2019-01-15T04:38:37.655Z,16.98
2019-01-15T04:39:37.943Z,16.98
2019-01-15T04:40:37.697Z,16.98
2019-01-15T04:41:37.889Z,16.98
2019-01-15T04:42:37.654Z,16.98
2019-01-15T04:43:38.144Z,16.99
2019-01-15T04:44:37.547Z,16.99
2019-01-15T04:45:37.573Z,17
2019-01-15T04:46:37.525Z,17
2019-01-15T04:47:37.724Z,17.01
2019-01-15T04:48:37.599Z,17.03
2019-01-15T04:49:37.446Z,17.03
2019-01-15T04:50:37.857Z,17.04
2019-01-15T04:51:37.709Z,17.04
2019-01-15T04:52:38.041Z,17.05
2019-01-15T04:53:37.688Z,17.07
2019-01-15T04:54:37.776Z,17.07
2019-01-15T04:55:37.456Z,17.09
2019-01-15T04:56:37.856Z,17.1
2019-01-15T04:57:37.619Z,17.12
2019-01-15T04:58:37.456Z,17.13
2019-01-15T04:59:37.792Z,17.16
2019-01-15T05:00:37.735Z,17.17
2019-01-15T05:01:37.668Z,17.18
2019-01-15T05:02:38.036Z,17.19
2019-01-15T05:03:37.782Z,17.22
2019-01-15T05:04:37.954Z,17.24
2019-01-15T05:05:37.846Z,17.25
2019-01-15T05:06:37.517Z,17.27
2019-01-15T05:07:37.761Z,17.3
2019-01-15T05:08:38.157Z,17.31
2019-01-15T05:09:37.728Z,17.33
2019-01-15T05:10:37.957Z,17.35
2019-01-15T05:11:37.677Z,17.36
2019-01-15T05:12:37.506Z,17.38
2019-01-15T05:13:37.572Z,17.4
2019-01-15T05:14:37.696Z,17.42
2019-01-15T05:15:37.529Z,17.43
2019-01-15T05:16:37.853Z,17.47
2019-01-15T05:17:38.959Z,17.49
2019-01-15T05:18:37.656Z,17.51
2019-01-15T05:19:37.777Z,17.52
2019-01-15T05:20:37.783Z,17.55
2019-01-15T05:21:38.540Z,17.57
2019-01-15T05:22:37.767Z,17.59
2019-01-15T05:23:37.879Z,17.64
2019-01-15T05:24:37.907Z,17.68
2019-01-15T05:25:37.915Z,17.67
2019-01-15T05:26:38.025Z,17.68
2019-01-15T05:27:37.835Z,17.69
2019-01-15T05:28:37.713Z,17.7
2019-01-15T05:29:37.435Z,17.72
2019-01-15T05:30:37.831Z,17.74
2019-01-15T05:31:38.148Z,17.75
2019-01-15T05:32:37.694Z,17.76
2019-01-15T05:33:37.880Z,17.79
2019-01-15T05:34:37.957Z,17.8
2019-01-15T05:35:38.510Z,17.81
2019-01-15T05:36:38.033Z,17.81
2019-01-15T05:37:37.699Z,17.84
2019-01-15T05:38:38.054Z,17.85
2019-01-15T05:39:37.835Z,17.87
2019-01-15T05:40:38.080Z,17.89
2019-01-15T05:41:37.570Z,17.9
2019-01-15T05:42:38.571Z,17.91
2019-01-15T05:43:37.407Z,17.93
2019-01-15T05:44:37.904Z,17.92
2019-01-15T05:45:37.875Z,17.94
2019-01-15T05:46:37.738Z,17.95
2019-01-15T05:47:37.612Z,17.97
2019-01-15T05:48:37.680Z,17.98
2019-01-15T05:49:37.935Z,17.99
2019-01-15T05:50:37.822Z,18
2019-01-15T05:51:37.824Z,18.02
2019-01-15T05:52:37.766Z,18.04
2019-01-15T05:53:37.620Z,18.04
2019-01-15T05:54:37.685Z,18.05
2019-01-15T05:55:37.503Z,18.08
2019-01-15T05:56:37.779Z,18.09
2019-01-15T05:57:37.833Z,18.1
2019-01-15T05:58:38.003Z,18.11
2019-01-15T05:59:37.777Z,18.12
2019-01-15T06:00:37.481Z,18.13
2019-01-15T06:01:37.788Z,18.14
2019-01-15T06:02:37.694Z,18.16
2019-01-15T06:03:37.399Z,18.17
2019-01-15T06:04:37.707Z,18.17
2019-01-15T06:05:38.023Z,18.18
2019-01-15T06:06:37.778Z,18.2
2019-01-15T06:07:37.901Z,18.22
2019-01-15T06:08:37.972Z,18.23
2019-01-15T06:09:37.850Z,18.24
2019-01-15T06:10:37.790Z,18.25
2019-01-15T06:11:37.682Z,18.26
2019-01-15T06:12:37.913Z,18.27
2019-01-15T06:13:43.149Z,18.28
2019-01-15T06:14:37.613Z,18.29
2019-01-15T06:15:37.416Z,18.3
2019-01-15T06:16:37.945Z,18.31
2019-01-15T06:17:37.855Z,18.33
2019-01-15T06:18:39.437Z,18.33
2019-01-15T06:19:39.567Z,18.35
2019-01-15T06:20:37.725Z,18.35
2019-01-15T06:21:37.655Z,18.35
2019-01-15T06:22:37.438Z,18.37
2019-01-15T06:23:37.870Z,18.37
2019-01-15T06:24:37.688Z,18.37
2019-01-15T06:25:38.019Z,18.38
2019-01-15T06:26:37.669Z,18.39
2019-01-15T06:27:39.464Z,18.39
2019-01-15T06:28:39.277Z,18.4
2019-01-15T06:29:37.539Z,18.37
2019-01-15T06:30:37.654Z,18.14
2019-01-15T06:31:37.867Z,17.86
2019-01-15T06:32:37.752Z,17.68
2019-01-15T06:33:38.652Z,17.53
2019-01-15T06:34:38.931Z,17.37
2019-01-15T06:35:39.481Z,17.27
2019-01-15T06:36:39.113Z,17.18
2019-01-15T06:37:37.750Z,17.1
2019-01-15T06:38:37.797Z,17.23
2019-01-15T06:39:37.967Z,17.3
2019-01-15T06:40:37.501Z,17.38
2019-01-15T06:41:38.073Z,17.46
2019-01-15T06:42:37.947Z,17.53
2019-01-15T06:43:37.730Z,17.58
2019-01-15T06:44:37.792Z,17.62
2019-01-15T06:45:38.378Z,17.67
2019-01-15T06:46:38.067Z,17.71
2019-01-15T06:47:37.507Z,17.78
2019-01-15T06:48:38.032Z,17.8
2019-01-15T06:49:37.485Z,17.86
2019-01-15T06:50:37.549Z,17.86
2019-01-15T06:51:37.692Z,17.87
2019-01-15T06:52:37.674Z,17.89
2019-01-15T06:53:37.891Z,17.9
2019-01-15T06:54:37.633Z,17.92
2019-01-15T06:55:37.345Z,17.94
2019-01-15T06:56:37.673Z,17.95
2019-01-15T06:57:37.973Z,17.96
2019-01-15T06:58:37.819Z,17.98
2019-01-15T06:59:37.508Z,17.99
2019-01-15T07:00:38.564Z,18
2019-01-15T07:01:37.779Z,18.01
2019-01-15T07:02:38.009Z,18.02
2019-01-15T07:03:38.335Z,18.02
2019-01-15T07:04:44.390Z,18.04
2019-01-15T07:05:37.590Z,18.04
2019-01-15T07:06:37.417Z,18.04
2019-01-15T07:07:37.937Z,18.05
2019-01-15T07:08:37.669Z,18.05
2019-01-15T07:09:37.738Z,18.06
2019-01-15T07:10:38.549Z,18.06
2019-01-15T07:11:37.880Z,18.06
2019-01-15T07:12:39.367Z,18.08
2019-01-15T07:13:37.709Z,18.07
2019-01-15T07:14:37.620Z,18.07
2019-01-15T07:15:37.750Z,18.08
2019-01-15T07:16:37.874Z,18.09
2019-01-15T07:17:37.748Z,18.08
2019-01-15T07:18:37.796Z,18.07
2019-01-15T07:19:37.809Z,18.07
2019-01-15T07:20:38.224Z,18.06
2019-01-15T07:21:37.718Z,18.08
2019-01-15T07:22:37.577Z,18.09
2019-01-15T07:23:37.744Z,18.09
2019-01-15T07:24:38.048Z,18.08
2019-01-15T07:25:37.611Z,18.09
2019-01-15T07:26:37.690Z,18.09
2019-01-15T07:27:37.813Z,18.08
2019-01-15T07:28:37.934Z,18.07
2019-01-15T07:29:37.852Z,18.08
2019-01-15T07:30:37.663Z,18.08
2019-01-15T07:31:37.499Z,18.08
2019-01-15T07:32:37.453Z,18.07
2019-01-15T07:33:37.405Z,18.07
2019-01-15T07:34:37.791Z,18.07
2019-01-15T07:35:37.439Z,18.07
2019-01-15T07:36:37.507Z,18.09
2019-01-15T07:37:37.792Z,18.08
2019-01-15T07:38:37.443Z,18.08
2019-01-15T07:39:37.732Z,18.09
2019-01-15T07:40:37.687Z,18.08
2019-01-15T07:41:37.760Z,18.08
2019-01-15T07:42:37.533Z,18.07
2019-01-15T07:43:37.683Z,18.08
2019-01-15T07:44:37.731Z,18.07
2019-01-15T07:45:37.992Z,18.08
2019-01-15T07:46:37.334Z,18.08
2019-01-15T07:47:37.783Z,18.07
2019-01-15T07:48:37.821Z,18.09
2019-01-15T07:49:37.465Z,18.08
2019-01-15T07:50:37.904Z,18.07
2019-01-15T07:51:38.731Z,18.07
2019-01-15T07:52:37.656Z,18.07
2019-01-15T07:53:37.780Z,18.06
2019-01-15T07:54:37.608Z,18.07
2019-01-15T07:55:37.996Z,18.08
2019-01-15T07:56:37.950Z,18.07
2019-01-15T07:57:37.813Z,18.08
2019-01-15T07:58:37.605Z,18.08
2019-01-15T07:59:37.612Z,18.07
2019-01-15T08:00:37.799Z,18.07
2019-01-15T08:01:37.529Z,18.08
2019-01-15T08:02:37.779Z,18.07
2019-01-15T08:03:37.490Z,18.07
2019-01-15T08:04:37.879Z,18.07
2019-01-15T08:05:37.747Z,18.08
2019-01-15T08:06:37.815Z,18.08
2019-01-15T08:07:37.502Z,18.07
2019-01-15T08:08:37.624Z,18.07
2019-01-15T08:09:37.492Z,18.09
2019-01-15T08:10:37.862Z,18.08
2019-01-15T08:11:37.878Z,18.08
2019-01-15T08:12:37.897Z,18.1
2019-01-15T08:13:37.479Z,18.1
2019-01-15T08:14:37.618Z,18.1
2019-01-15T08:15:37.690Z,18.1
2019-01-15T08:16:37.819Z,18.11
2019-01-15T08:17:37.749Z,18.1
2019-01-15T08:18:37.701Z,18.1
2019-01-15T08:19:37.569Z,18.1
2019-01-15T08:20:37.427Z,18.1
2019-01-15T08:21:37.718Z,18.11
2019-01-15T08:22:37.971Z,18.1
2019-01-15T08:23:37.803Z,18.11
2019-01-15T08:24:37.829Z,18.11
2019-01-15T08:25:37.729Z,18.12
2019-01-15T08:26:37.463Z,18.12
2019-01-15T08:27:37.539Z,18.12
2019-01-15T08:28:37.940Z,18.13
2019-01-15T08:29:37.764Z,18.12
2019-01-15T08:30:37.493Z,18.12
2019-01-15T08:31:38.116Z,18.13
2019-01-15T08:32:37.517Z,18.13
2019-01-15T08:33:37.892Z,18.14
2019-01-15T08:34:37.829Z,18.15
2019-01-15T08:35:37.634Z,18.14
2019-01-15T08:36:37.654Z,18.14
2019-01-15T08:37:39.251Z,18.15
2019-01-15T08:38:37.896Z,18.15
2019-01-15T08:39:38.147Z,18.15
2019-01-15T08:40:37.354Z,18.15
2019-01-15T08:41:37.709Z,18.16
2019-01-15T08:42:37.512Z,18.16
2019-01-15T08:43:37.527Z,18.16
2019-01-15T08:44:37.468Z,18.16
2019-01-15T08:45:37.705Z,18.16
2019-01-15T08:46:37.705Z,18.16
2019-01-15T08:47:37.866Z,18.17
2019-01-15T08:48:37.813Z,18.17
2019-01-15T08:49:37.719Z,18.17
2019-01-15T08:50:37.914Z,18.17
2019-01-15T08:51:37.710Z,18.18
2019-01-15T08:52:39.312Z,18.19
2019-01-15T08:53:37.577Z,18.18
2019-01-15T08:54:37.915Z,18.18
2019-01-15T08:55:38.026Z,18.21
2019-01-15T08:56:37.581Z,18.2
2019-01-15T08:57:37.687Z,18.21
2019-01-15T08:58:39.346Z,18.21
2019-01-15T08:59:37.602Z,18.21
2019-01-15T09:00:38.533Z,18.2
2019-01-15T09:01:37.520Z,18.21
2019-01-15T09:02:37.602Z,18.21
2019-01-15T09:03:37.612Z,18.21
2019-01-15T09:04:38.550Z,18.21
2019-01-15T09:05:38.116Z,18.22
2019-01-15T09:06:37.765Z,18.22
2019-01-15T09:07:37.450Z,18.21
2019-01-15T09:08:37.754Z,18.22
2019-01-15T09:09:37.809Z,18.22
2019-01-15T09:10:37.760Z,18.21
2019-01-15T09:11:37.775Z,18.25
2019-01-15T09:12:37.656Z,18.28
2019-01-15T09:13:37.722Z,18.29
2019-01-15T09:14:37.719Z,18.29
2019-01-15T09:15:37.706Z,18.3
2019-01-15T09:16:37.794Z,18.33
2019-01-15T09:17:37.509Z,18.35
2019-01-15T09:18:37.995Z,18.36
2019-01-15T09:19:37.513Z,18.38
2019-01-15T09:20:37.674Z,18.41
2019-01-15T09:21:37.519Z,18.43
2019-01-15T09:22:37.428Z,18.45
2019-01-15T09:23:37.593Z,18.46
2019-01-15T09:24:37.916Z,18.48
2019-01-15T09:25:37.807Z,18.5
2019-01-15T09:26:37.987Z,18.51
2019-01-15T09:27:37.884Z,18.53
2019-01-15T09:28:37.420Z,18.54
2019-01-15T09:29:37.577Z,18.56
2019-01-15T09:30:37.601Z,18.58
2019-01-15T09:31:37.378Z,18.6
2019-01-15T09:32:38.017Z,18.62
2019-01-15T09:33:37.734Z,18.64
2019-01-15T09:34:37.548Z,18.66
2019-01-15T09:35:37.947Z,18.67
2019-01-15T09:36:38.095Z,18.69
2019-01-15T09:37:37.819Z,18.7
2019-01-15T09:38:38.223Z,18.72
2019-01-15T09:39:38.071Z,18.73
2019-01-15T09:40:38.427Z,18.74
2019-01-15T09:41:37.757Z,18.76
2019-01-15T09:42:37.854Z,18.78
2019-01-15T09:43:37.729Z,18.78
2019-01-15T09:44:37.950Z,18.8
2019-01-15T09:45:38.099Z,18.81
2019-01-15T09:46:37.721Z,18.82
2019-01-15T09:47:37.525Z,18.84
2019-01-15T09:48:37.716Z,18.85
2019-01-15T09:49:37.715Z,18.89
2019-01-15T09:50:37.709Z,18.9
2019-01-15T09:51:39.537Z,18.9
2019-01-15T09:52:37.285Z,18.9
2019-01-15T09:53:38.340Z,18.91
2019-01-15T09:54:37.594Z,18.92
2019-01-15T09:55:38.105Z,18.94
2019-01-15T09:56:37.753Z,18.95
2019-01-15T09:57:37.497Z,18.97
2019-01-15T09:58:37.527Z,18.97
2019-01-15T09:59:37.566Z,18.97
2019-01-15T10:00:37.319Z,18.99
2019-01-15T10:01:37.542Z,18.99
2019-01-15T10:02:38.592Z,19.01
2019-01-15T10:03:37.316Z,19.02
2019-01-15T10:04:37.858Z,19.03
2019-01-15T10:05:39.470Z,19.04
2019-01-15T10:06:38.062Z,19.05
2019-01-15T10:07:37.647Z,19.05
2019-01-15T10:08:39.317Z,19.06
2019-01-15T10:09:38.513Z,19.08
2019-01-15T10:10:37.593Z,19.09
2019-01-15T10:11:39.446Z,19.11
2019-01-15T10:12:37.550Z,19.11
2019-01-15T10:13:38.751Z,19.12
2019-01-15T10:14:41.908Z,19.13
2019-01-15T10:15:37.894Z,19.14
2019-01-15T10:16:37.473Z,19.15
2019-01-15T10:17:37.614Z,19.16
2019-01-15T10:18:37.829Z,19.17
2019-01-15T10:19:37.974Z,19.18
2019-01-15T10:20:37.329Z,19.2
2019-01-15T10:21:37.383Z,19.21
2019-01-15T10:22:37.859Z,19.21
2019-01-15T10:23:37.463Z,19.22
2019-01-15T10:24:37.494Z,19.23
2019-01-15T10:25:37.655Z,19.25
2019-01-15T10:26:37.573Z,19.25
2019-01-15T10:27:37.493Z,19.28
2019-01-15T10:28:37.801Z,19.26
2019-01-15T10:29:37.744Z,19.24
2019-01-15T10:30:37.727Z,19.23
2019-01-15T10:31:37.930Z,19.24
2019-01-15T10:32:37.758Z,19.23
2019-01-15T10:33:37.522Z,19.23
2019-01-15T10:34:37.913Z,19.22
2019-01-15T10:35:37.439Z,19.22
2019-01-15T10:36:37.495Z,19.22
2019-01-15T10:37:37.652Z,19.22
2019-01-15T10:38:38.555Z,19.23
2019-01-15T10:39:37.658Z,19.23
2019-01-15T10:40:37.789Z,19.22
2019-01-15T10:41:37.393Z,19.22
2019-01-15T10:42:37.728Z,19.22
2019-01-15T10:43:38.038Z,19.22
2019-01-15T10:44:37.876Z,19.21
2019-01-15T10:45:37.506Z,19.21
2019-01-15T10:46:37.723Z,19.21
2019-01-15T10:47:37.561Z,19.2
2019-01-15T10:48:37.566Z,19.21
2019-01-15T10:49:37.707Z,19.21
2019-01-15T10:50:37.406Z,19.2
2019-01-15T10:51:37.625Z,19.2
2019-01-15T10:52:37.759Z,19.2
2019-01-15T10:53:37.721Z,19.2
2019-01-15T10:54:37.834Z,19.2
2019-01-15T10:55:37.671Z,19.2
2019-01-15T10:56:37.456Z,19.19
2019-01-15T10:57:37.494Z,19.19
2019-01-15T10:58:37.863Z,19.2
2019-01-15T10:59:37.708Z,19.22
2019-01-15T11:00:37.465Z,19.22
2019-01-15T11:01:37.817Z,19.23
2019-01-15T11:02:38.258Z,19.23
2019-01-15T11:03:37.399Z,19.24
2019-01-15T11:04:37.746Z,19.25
2019-01-15T11:05:37.746Z,19.27
2019-01-15T11:06:37.489Z,19.27
2019-01-15T11:07:37.974Z,19.28
2019-01-15T11:08:37.676Z,19.29
2019-01-15T11:09:37.394Z,19.3
2019-01-15T11:10:37.374Z,19.31
2019-01-15T11:11:37.611Z,19.32
2019-01-15T11:12:37.673Z,19.33
2019-01-15T11:13:37.353Z,19.33
2019-01-15T11:14:37.439Z,19.32
2019-01-15T11:15:43.732Z,19.32
2019-01-15T11:16:37.859Z,19.33
2019-01-15T11:17:37.799Z,19.32
2019-01-15T11:18:37.286Z,19.33
2019-01-15T11:19:37.409Z,19.32
2019-01-15T11:20:37.393Z,19.33
2019-01-15T11:21:38.247Z,19.33
2019-01-15T11:22:37.746Z,19.33
2019-01-15T11:23:38.024Z,19.33
2019-01-15T11:24:38.724Z,19.33
2019-01-15T11:25:37.940Z,19.33
2019-01-15T11:26:37.663Z,19.33
2019-01-15T11:27:37.756Z,19.33
2019-01-15T11:28:39.111Z,19.33
2019-01-15T11:29:37.711Z,19.33
2019-01-15T11:30:38.086Z,19.33
2019-01-15T11:31:37.620Z,19.33
2019-01-15T11:32:38.920Z,19.33
2019-01-15T11:33:37.792Z,19.33
2019-01-15T11:34:37.745Z,19.33
2019-01-15T11:35:37.720Z,19.33
2019-01-15T11:36:38.280Z,19.33
2019-01-15T11:37:39.287Z,19.33
2019-01-15T11:38:37.907Z,19.33
2019-01-15T11:39:38.091Z,19.33
2019-01-15T11:40:37.525Z,19.34
2019-01-15T11:41:37.850Z,19.33
2019-01-15T11:42:37.512Z,19.34
2019-01-15T11:43:39.347Z,19.33
2019-01-15T11:44:37.455Z,19.33
2019-01-15T11:45:37.480Z,19.33
2019-01-15T11:46:38.064Z,19.34
2019-01-15T11:47:37.770Z,19.34
2019-01-15T11:48:37.528Z,19.34
2019-01-15T11:49:37.820Z,19.34
2019-01-15T11:50:37.432Z,19.35
2019-01-15T11:51:37.399Z,19.35
2019-01-15T11:52:37.447Z,19.35
2019-01-15T11:53:37.768Z,19.35
2019-01-15T11:54:37.990Z,19.36
2019-01-15T11:55:37.403Z,19.36
2019-01-15T11:56:38.228Z,19.37
2019-01-15T11:57:37.928Z,19.37
2019-01-15T11:58:37.526Z,19.36
2019-01-15T11:59:37.733Z,19.36
2019-01-15T12:00:37.766Z,19.35
2019-01-15T12:01:37.482Z,19.37
2019-01-15T12:02:37.862Z,19.37
2019-01-15T12:03:37.421Z,19.36
2019-01-15T12:04:37.487Z,19.37
2019-01-15T12:05:37.937Z,19.37
2019-01-15T12:06:37.275Z,19.36
2019-01-15T12:07:37.626Z,19.36
2019-01-15T12:08:37.615Z,19.35
2019-01-15T12:09:38.425Z,19.36
2019-01-15T12:10:37.411Z,19.36
2019-01-15T12:11:37.544Z,19.35
2019-01-15T12:12:37.404Z,19.35
2019-01-15T12:13:37.746Z,19.34
2019-01-15T12:14:37.254Z,19.34
2019-01-15T12:15:37.766Z,19.33
2019-01-15T12:16:37.699Z,19.34
2019-01-15T12:17:37.666Z,19.34
2019-01-15T12:18:37.360Z,19.34
2019-01-15T12:19:37.648Z,19.35
2019-01-15T12:20:39.613Z,19.34
2019-01-15T12:21:38.058Z,19.35
2019-01-15T12:22:37.761Z,19.35
2019-01-15T12:23:37.409Z,19.34
2019-01-15T12:24:37.817Z,19.34
2019-01-15T12:25:37.597Z,19.33
2019-01-15T12:26:37.565Z,19.34
2019-01-15T12:27:38.020Z,19.34
2019-01-15T12:28:38.043Z,19.34
2019-01-15T12:29:37.529Z,19.34
2019-01-15T12:30:37.543Z,19.33
2019-01-15T12:31:37.770Z,19.33
2019-01-15T12:32:37.527Z,19.33
2019-01-15T12:33:37.533Z,19.33
2019-01-15T12:34:37.469Z,19.33
2019-01-15T12:35:37.531Z,19.33
2019-01-15T12:36:37.746Z,19.33
2019-01-15T12:37:37.754Z,19.33
2019-01-15T12:38:37.892Z,19.33
2019-01-15T12:39:37.788Z,19.33
2019-01-15T12:40:37.314Z,19.33
2019-01-15T12:41:37.791Z,19.33
2019-01-15T12:42:37.347Z,19.33
2019-01-15T12:43:37.474Z,19.33
2019-01-15T12:44:37.403Z,19.33
2019-01-15T12:45:37.509Z,19.33
2019-01-15T12:46:37.760Z,19.33
2019-01-15T12:47:37.827Z,19.33
2019-01-15T12:48:37.892Z,19.33
2019-01-15T12:49:37.781Z,19.33
2019-01-15T12:50:39.221Z,19.33
2019-01-15T12:51:37.867Z,19.33
2019-01-15T12:52:37.680Z,19.33
2019-01-15T12:53:37.312Z,19.33
2019-01-15T12:54:37.872Z,19.36
2019-01-15T12:55:37.754Z,19.37